sensor_id;sensor_type;location;lat;lon;timestamp;P1;durP1;ratioP1;P2;durP2;ratioP2
39300;SDS011;25019;42.626;23.380;2024-01-07T00:01:02;6.40;;;4.80;;
39300;SDS011;25019;42.626;23.380;2024-01-07T00:03:28;8.47;;;4.60;;
39300;SDS011;25019;42.626;23.380;2024-01-07T00:05:54;8.20;;;4.33;;
39300;SDS011;25019;42.626;23.380;2024-01-07T00:08:20;6.43;;;4.83;;
39300;SDS011;25019;42.626;23.380;2024-01-07T00:10:46;7.50;;;5.13;;
39300;SDS011;25019;42.626;23.380;2024-01-07T00:13:13;10.20;;;6.40;;
39300;SDS011;25019;42.626;23.380;2024-01-07T00:15:38;8.70;;;5.40;;
39300;SDS011;25019;42.626;23.380;2024-01-07T00:18:04;7.67;;;3.93;;
39300;SDS011;25019;42.626;23.380;2024-01-07T00:20:30;7.30;;;4.60;;
39300;SDS011;25019;42.626;23.380;2024-01-07T00:22:55;5.97;;;4.50;;
39300;SDS011;25019;42.626;23.380;2024-01-07T00:25:21;10.23;;;6.93;;
39300;SDS011;25019;42.626;23.380;2024-01-07T00:27:47;9.40;;;5.70;;
39300;SDS011;25019;42.626;23.380;2024-01-07T00:30:13;11.40;;;6.07;;
39300;SDS011;25019;42.626;23.380;2024-01-07T00:32:39;12.67;;;6.97;;
39300;SDS011;25019;42.626;23.380;2024-01-07T00:35:04;14.33;;;7.23;;
39300;SDS011;25019;42.626;23.380;2024-01-07T00:37:30;9.07;;;4.67;;
39300;SDS011;25019;42.626;23.380;2024-01-07T00:39:56;6.90;;;5.27;;
39300;SDS011;25019;42.626;23.380;2024-01-07T00:42:22;6.83;;;4.80;;
39300;SDS011;25019;42.626;23.380;2024-01-07T00:44:48;9.00;;;4.60;;
39300;SDS011;25019;42.626;23.380;2024-01-07T00:47:16;9.97;;;5.80;;
39300;SDS011;25019;42.626;23.380;2024-01-07T00:49:41;8.30;;;5.97;;
39300;SDS011;25019;42.626;23.380;2024-01-07T00:52:07;7.60;;;5.40;;
39300;SDS011;25019;42.626;23.380;2024-01-07T00:54:34;6.63;;;4.33;;
39300;SDS011;25019;42.626;23.380;2024-01-07T00:56:59;8.40;;;5.10;;
39300;SDS011;25019;42.626;23.380;2024-01-07T00:59:25;7.03;;;4.60;;
39300;SDS011;25019;42.626;23.380;2024-01-07T01:01:54;10.20;;;4.50;;
39300;SDS011;25019;42.626;23.380;2024-01-07T01:04:21;6.87;;;4.87;;
39300;SDS011;25019;42.626;23.380;2024-01-07T01:06:46;7.27;;;4.33;;
39300;SDS011;25019;42.626;23.380;2024-01-07T01:09:12;8.17;;;5.20;;
39300;SDS011;25019;42.626;23.380;2024-01-07T01:11:38;6.57;;;5.10;;
39300;SDS011;25019;42.626;23.380;2024-01-07T01:14:04;7.93;;;5.33;;
39300;SDS011;25019;42.626;23.380;2024-01-07T01:16:30;7.03;;;5.03;;
39300;SDS011;25019;42.626;23.380;2024-01-07T01:18:56;11.57;;;5.40;;
39300;SDS011;25019;42.626;23.380;2024-01-07T01:21:22;9.37;;;5.07;;
39300;SDS011;25019;42.626;23.380;2024-01-07T01:23:48;8.23;;;5.00;;
39300;SDS011;25019;42.626;23.380;2024-01-07T01:26:14;8.53;;;4.67;;
39300;SDS011;25019;42.626;23.380;2024-01-07T01:28:40;7.83;;;5.00;;
39300;SDS011;25019;42.626;23.380;2024-01-07T01:31:06;9.10;;;4.87;;
39300;SDS011;25019;42.626;23.380;2024-01-07T01:33:31;7.83;;;5.00;;
39300;SDS011;25019;42.626;23.380;2024-01-07T01:35:57;7.97;;;4.07;;
39300;SDS011;25019;42.626;23.380;2024-01-07T01:38:23;6.37;;;4.17;;
39300;SDS011;25019;42.626;23.380;2024-01-07T01:40:52;8.47;;;3.70;;
39300;SDS011;25019;42.626;23.380;2024-01-07T01:43:22;7.03;;;4.47;;
39300;SDS011;25019;42.626;23.380;2024-01-07T01:45:55;6.47;;;4.50;;
39300;SDS011;25019;42.626;23.380;2024-01-07T01:48:24;5.30;;;3.83;;
39300;SDS011;25019;42.626;23.380;2024-01-07T01:50:52;9.53;;;4.53;;
39300;SDS011;25019;42.626;23.380;2024-01-07T01:53:19;18.37;;;9.10;;
39300;SDS011;25019;42.626;23.380;2024-01-07T01:55:45;9.37;;;5.83;;
39300;SDS011;25019;42.626;23.380;2024-01-07T01:58:11;9.67;;;5.93;;
39300;SDS011;25019;42.626;23.380;2024-01-07T02:00:39;6.90;;;4.43;;
39300;SDS011;25019;42.626;23.380;2024-01-07T02:03:05;6.37;;;4.97;;
39300;SDS011;25019;42.626;23.380;2024-01-07T02:05:31;9.27;;;4.03;;
39300;SDS011;25019;42.626;23.380;2024-01-07T02:07:57;6.00;;;4.20;;
39300;SDS011;25019;42.626;23.380;2024-01-07T02:10:24;7.47;;;3.90;;
39300;SDS011;25019;42.626;23.380;2024-01-07T02:12:49;6.20;;;4.10;;
39300;SDS011;25019;42.626;23.380;2024-01-07T02:15:15;5.10;;;3.83;;
39300;SDS011;25019;42.626;23.380;2024-01-07T02:17:41;5.87;;;4.20;;
39300;SDS011;25019;42.626;23.380;2024-01-07T02:20:07;7.40;;;3.77;;
39300;SDS011;25019;42.626;23.380;2024-01-07T02:22:33;4.93;;;3.87;;
39300;SDS011;25019;42.626;23.380;2024-01-07T02:24:59;4.90;;;3.43;;
39300;SDS011;25019;42.626;23.380;2024-01-07T02:27:25;5.53;;;3.67;;
39300;SDS011;25019;42.626;23.380;2024-01-07T02:29:51;7.50;;;3.97;;
39300;SDS011;25019;42.626;23.380;2024-01-07T02:32:17;3.90;;;3.43;;
39300;SDS011;25019;42.626;23.380;2024-01-07T02:34:43;6.57;;;3.90;;
39300;SDS011;25019;42.626;23.380;2024-01-07T02:37:09;5.03;;;3.63;;
39300;SDS011;25019;42.626;23.380;2024-01-07T02:39:35;6.80;;;3.40;;
39300;SDS011;25019;42.626;23.380;2024-01-07T02:42:01;5.50;;;2.93;;
39300;SDS011;25019;42.626;23.380;2024-01-07T02:44:27;6.10;;;3.20;;
39300;SDS011;25019;42.626;23.380;2024-01-07T02:46:52;5.13;;;3.20;;
39300;SDS011;25019;42.626;23.380;2024-01-07T02:49:18;3.70;;;2.70;;
39300;SDS011;25019;42.626;23.380;2024-01-07T02:51:44;6.03;;;3.10;;
39300;SDS011;25019;42.626;23.380;2024-01-07T02:54:15;4.53;;;2.77;;
39300;SDS011;25019;42.626;23.380;2024-01-07T02:56:41;3.57;;;2.80;;
39300;SDS011;25019;42.626;23.380;2024-01-07T02:59:07;5.00;;;3.10;;
39300;SDS011;25019;42.626;23.380;2024-01-07T03:01:32;3.63;;;2.70;;
39300;SDS011;25019;42.626;23.380;2024-01-07T03:04:05;7.43;;;2.57;;
39300;SDS011;25019;42.626;23.380;2024-01-07T03:06:33;6.17;;;3.80;;
39300;SDS011;25019;42.626;23.380;2024-01-07T03:08:59;9.87;;;4.10;;
39300;SDS011;25019;42.626;23.380;2024-01-07T03:11:24;4.37;;;3.37;;
39300;SDS011;25019;42.626;23.380;2024-01-07T03:13:50;6.90;;;4.70;;
39300;SDS011;25019;42.626;23.380;2024-01-07T03:16:23;6.13;;;3.97;;
39300;SDS011;25019;42.626;23.380;2024-01-07T03:18:49;6.43;;;4.30;;
39300;SDS011;25019;42.626;23.380;2024-01-07T03:21:24;7.17;;;3.63;;
39300;SDS011;25019;42.626;23.380;2024-01-07T03:23:50;5.93;;;3.87;;
39300;SDS011;25019;42.626;23.380;2024-01-07T03:26:17;6.60;;;3.57;;
39300;SDS011;25019;42.626;23.380;2024-01-07T03:28:44;7.93;;;3.87;;
39300;SDS011;25019;42.626;23.380;2024-01-07T03:31:11;5.73;;;3.73;;
39300;SDS011;25019;42.626;23.380;2024-01-07T03:33:38;4.90;;;3.73;;
39300;SDS011;25019;42.626;23.380;2024-01-07T03:36:08;6.13;;;3.77;;
39300;SDS011;25019;42.626;23.380;2024-01-07T03:38:34;7.10;;;3.97;;
39300;SDS011;25019;42.626;23.380;2024-01-07T03:41:01;5.70;;;3.90;;
39300;SDS011;25019;42.626;23.380;2024-01-07T03:43:27;5.93;;;3.70;;
39300;SDS011;25019;42.626;23.380;2024-01-07T03:45:53;6.33;;;4.10;;
39300;SDS011;25019;42.626;23.380;2024-01-07T03:48:19;5.17;;;3.77;;
39300;SDS011;25019;42.626;23.380;2024-01-07T03:50:45;5.37;;;4.10;;
39300;SDS011;25019;42.626;23.380;2024-01-07T03:53:11;6.53;;;4.10;;
39300;SDS011;25019;42.626;23.380;2024-01-07T03:55:37;5.20;;;3.40;;
39300;SDS011;25019;42.626;23.380;2024-01-07T03:58:02;4.77;;;3.70;;
39300;SDS011;25019;42.626;23.380;2024-01-07T04:00:29;6.30;;;3.93;;
39300;SDS011;25019;42.626;23.380;2024-01-07T04:02:55;4.87;;;4.17;;
39300;SDS011;25019;42.626;23.380;2024-01-07T04:05:20;5.27;;;3.13;;
39300;SDS011;25019;42.626;23.380;2024-01-07T04:07:46;9.70;;;4.63;;
39300;SDS011;25019;42.626;23.380;2024-01-07T04:10:12;5.40;;;3.90;;
39300;SDS011;25019;42.626;23.380;2024-01-07T04:12:39;4.80;;;3.60;;
39300;SDS011;25019;42.626;23.380;2024-01-07T04:15:04;5.40;;;3.37;;
39300;SDS011;25019;42.626;23.380;2024-01-07T04:17:30;4.27;;;3.40;;
39300;SDS011;25019;42.626;23.380;2024-01-07T04:19:56;7.73;;;4.30;;
39300;SDS011;25019;42.626;23.380;2024-01-07T04:22:22;7.73;;;4.40;;
39300;SDS011;25019;42.626;23.380;2024-01-07T04:24:48;12.63;;;6.03;;
39300;SDS011;25019;42.626;23.380;2024-01-07T04:27:13;9.77;;;7.03;;
39300;SDS011;25019;42.626;23.380;2024-01-07T04:29:39;12.27;;;7.47;;
39300;SDS011;25019;42.626;23.380;2024-01-07T04:32:05;11.23;;;7.60;;
39300;SDS011;25019;42.626;23.380;2024-01-07T04:34:30;16.03;;;8.87;;
39300;SDS011;25019;42.626;23.380;2024-01-07T04:36:56;10.50;;;8.03;;
39300;SDS011;25019;42.626;23.380;2024-01-07T04:39:22;12.90;;;9.00;;
39300;SDS011;25019;42.626;23.380;2024-01-07T04:41:48;15.27;;;8.83;;
39300;SDS011;25019;42.626;23.380;2024-01-07T04:44:14;11.50;;;8.30;;
39300;SDS011;25019;42.626;23.380;2024-01-07T04:46:40;15.20;;;8.20;;
39300;SDS011;25019;42.626;23.380;2024-01-07T04:49:06;13.10;;;8.57;;
39300;SDS011;25019;42.626;23.380;2024-01-07T04:51:32;13.53;;;8.63;;
39300;SDS011;25019;42.626;23.380;2024-01-07T04:53:58;13.90;;;9.37;;
39300;SDS011;25019;42.626;23.380;2024-01-07T04:56:24;10.63;;;7.70;;
39300;SDS011;25019;42.626;23.380;2024-01-07T04:58:50;11.47;;;7.97;;
39300;SDS011;25019;42.626;23.380;2024-01-07T05:01:15;11.40;;;7.30;;
39300;SDS011;25019;42.626;23.380;2024-01-07T05:03:41;12.63;;;7.27;;
39300;SDS011;25019;42.626;23.380;2024-01-07T05:06:10;10.83;;;6.80;;
39300;SDS011;25019;42.626;23.380;2024-01-07T05:08:42;12.47;;;6.90;;
39300;SDS011;25019;42.626;23.380;2024-01-07T05:11:08;9.17;;;6.07;;
39300;SDS011;25019;42.626;23.380;2024-01-07T05:13:34;8.43;;;6.00;;
39300;SDS011;25019;42.626;23.380;2024-01-07T05:16:00;10.43;;;6.20;;
39300;SDS011;25019;42.626;23.380;2024-01-07T05:18:26;12.33;;;6.27;;
39300;SDS011;25019;42.626;23.380;2024-01-07T05:20:52;10.63;;;6.67;;
39300;SDS011;25019;42.626;23.380;2024-01-07T05:23:18;12.53;;;7.13;;
39300;SDS011;25019;42.626;23.380;2024-01-07T05:25:44;8.30;;;6.23;;
39300;SDS011;25019;42.626;23.380;2024-01-07T05:28:10;10.40;;;6.37;;
39300;SDS011;25019;42.626;23.380;2024-01-07T05:30:36;10.50;;;6.60;;
39300;SDS011;25019;42.626;23.380;2024-01-07T05:33:03;9.67;;;6.00;;
39300;SDS011;25019;42.626;23.380;2024-01-07T05:35:30;13.27;;;7.07;;
39300;SDS011;25019;42.626;23.380;2024-01-07T05:37:56;11.80;;;8.87;;
39300;SDS011;25019;42.626;23.380;2024-01-07T05:40:22;16.70;;;11.03;;
39300;SDS011;25019;42.626;23.380;2024-01-07T05:42:48;17.53;;;10.73;;
39300;SDS011;25019;42.626;23.380;2024-01-07T05:45:13;18.20;;;11.20;;
39300;SDS011;25019;42.626;23.380;2024-01-07T05:47:39;16.70;;;10.77;;
39300;SDS011;25019;42.626;23.380;2024-01-07T05:50:06;16.17;;;11.17;;
39300;SDS011;25019;42.626;23.380;2024-01-07T05:52:32;17.37;;;11.67;;
39300;SDS011;25019;42.626;23.380;2024-01-07T05:54:58;14.57;;;11.43;;
39300;SDS011;25019;42.626;23.380;2024-01-07T05:57:24;18.50;;;12.73;;
39300;SDS011;25019;42.626;23.380;2024-01-07T05:59:50;20.73;;;13.27;;
39300;SDS011;25019;42.626;23.380;2024-01-07T06:02:16;24.07;;;14.43;;
39300;SDS011;25019;42.626;23.380;2024-01-07T06:04:43;26.10;;;15.10;;
39300;SDS011;25019;42.626;23.380;2024-01-07T06:07:09;30.90;;;17.10;;
39300;SDS011;25019;42.626;23.380;2024-01-07T06:09:34;24.63;;;16.10;;
39300;SDS011;25019;42.626;23.380;2024-01-07T06:12:00;29.83;;;16.70;;
39300;SDS011;25019;42.626;23.380;2024-01-07T06:14:26;23.93;;;15.23;;
39300;SDS011;25019;42.626;23.380;2024-01-07T06:16:52;24.67;;;16.00;;
39300;SDS011;25019;42.626;23.380;2024-01-07T06:19:18;24.60;;;15.90;;
39300;SDS011;25019;42.626;23.380;2024-01-07T06:21:45;23.33;;;15.77;;
39300;SDS011;25019;42.626;23.380;2024-01-07T06:24:11;23.93;;;15.03;;
39300;SDS011;25019;42.626;23.380;2024-01-07T06:26:36;24.20;;;14.53;;
39300;SDS011;25019;42.626;23.380;2024-01-07T06:29:02;19.70;;;12.37;;
39300;SDS011;25019;42.626;23.380;2024-01-07T06:31:28;17.13;;;10.43;;
39300;SDS011;25019;42.626;23.380;2024-01-07T06:33:54;15.87;;;11.37;;
39300;SDS011;25019;42.626;23.380;2024-01-07T06:36:23;15.73;;;11.20;;
39300;SDS011;25019;42.626;23.380;2024-01-07T06:38:50;20.50;;;12.03;;
39300;SDS011;25019;42.626;23.380;2024-01-07T06:41:15;16.80;;;11.00;;
39300;SDS011;25019;42.626;23.380;2024-01-07T06:43:41;15.57;;;10.90;;
39300;SDS011;25019;42.626;23.380;2024-01-07T06:46:06;19.40;;;12.13;;
39300;SDS011;25019;42.626;23.380;2024-01-07T06:48:32;17.47;;;11.40;;
39300;SDS011;25019;42.626;23.380;2024-01-07T06:50:58;18.13;;;12.27;;
39300;SDS011;25019;42.626;23.380;2024-01-07T06:53:24;16.23;;;10.13;;
39300;SDS011;25019;42.626;23.380;2024-01-07T06:55:49;17.13;;;10.83;;
39300;SDS011;25019;42.626;23.380;2024-01-07T06:58:15;17.37;;;11.20;;
39300;SDS011;25019;42.626;23.380;2024-01-07T07:00:41;14.60;;;11.00;;
39300;SDS011;25019;42.626;23.380;2024-01-07T07:03:07;15.07;;;9.67;;
39300;SDS011;25019;42.626;23.380;2024-01-07T07:05:33;20.47;;;10.43;;
39300;SDS011;25019;42.626;23.380;2024-01-07T07:07:59;15.70;;;10.67;;
39300;SDS011;25019;42.626;23.380;2024-01-07T07:10:26;16.40;;;10.47;;
39300;SDS011;25019;42.626;23.380;2024-01-07T07:12:53;13.40;;;8.43;;
39300;SDS011;25019;42.626;23.380;2024-01-07T07:15:19;12.07;;;9.13;;
39300;SDS011;25019;42.626;23.380;2024-01-07T07:17:44;13.93;;;9.43;;
39300;SDS011;25019;42.626;23.380;2024-01-07T07:20:11;24.73;;;14.93;;
39300;SDS011;25019;42.626;23.380;2024-01-07T07:22:55;18.63;;;12.37;;
39300;SDS011;25019;42.626;23.380;2024-01-07T07:25:21;15.43;;;9.60;;
39300;SDS011;25019;42.626;23.380;2024-01-07T07:27:47;15.73;;;10.33;;
39300;SDS011;25019;42.626;23.380;2024-01-07T07:30:13;18.20;;;11.00;;
39300;SDS011;25019;42.626;23.380;2024-01-07T07:32:39;13.27;;;10.20;;
39300;SDS011;25019;42.626;23.380;2024-01-07T07:35:07;17.80;;;11.67;;
39300;SDS011;25019;42.626;23.380;2024-01-07T07:37:33;16.27;;;12.03;;
39300;SDS011;25019;42.626;23.380;2024-01-07T07:39:59;15.50;;;11.50;;
39300;SDS011;25019;42.626;23.380;2024-01-07T07:42:24;17.27;;;11.43;;
39300;SDS011;25019;42.626;23.380;2024-01-07T07:44:51;14.57;;;11.10;;
39300;SDS011;25019;42.626;23.380;2024-01-07T07:47:16;13.10;;;10.03;;
39300;SDS011;25019;42.626;23.380;2024-01-07T07:49:43;12.43;;;9.17;;
39300;SDS011;25019;42.626;23.380;2024-01-07T07:52:09;16.60;;;9.67;;
39300;SDS011;25019;42.626;23.380;2024-01-07T07:54:37;14.23;;;8.07;;
39300;SDS011;25019;42.626;23.380;2024-01-07T07:57:03;19.10;;;13.50;;
39300;SDS011;25019;42.626;23.380;2024-01-07T07:59:29;26.50;;;18.83;;
39300;SDS011;25019;42.626;23.380;2024-01-07T08:01:54;11.67;;;6.97;;
39300;SDS011;25019;42.626;23.380;2024-01-07T08:04:20;11.93;;;7.27;;
39300;SDS011;25019;42.626;23.380;2024-01-07T08:06:46;13.73;;;8.53;;
39300;SDS011;25019;42.626;23.380;2024-01-07T08:09:12;15.80;;;8.10;;
39300;SDS011;25019;42.626;23.380;2024-01-07T08:11:37;8.10;;;6.73;;
39300;SDS011;25019;42.626;23.380;2024-01-07T08:14:03;8.97;;;7.40;;
39300;SDS011;25019;42.626;23.380;2024-01-07T08:16:31;11.73;;;7.50;;
39300;SDS011;25019;42.626;23.380;2024-01-07T08:18:57;10.53;;;7.17;;
39300;SDS011;25019;42.626;23.380;2024-01-07T08:21:23;11.17;;;7.03;;
39300;SDS011;25019;42.626;23.380;2024-01-07T08:23:48;9.93;;;7.27;;
39300;SDS011;25019;42.626;23.380;2024-01-07T08:26:20;9.77;;;6.80;;
39300;SDS011;25019;42.626;23.380;2024-01-07T08:28:46;10.47;;;6.83;;
39300;SDS011;25019;42.626;23.380;2024-01-07T08:31:12;10.43;;;7.27;;
39300;SDS011;25019;42.626;23.380;2024-01-07T08:33:38;8.90;;;6.20;;
39300;SDS011;25019;42.626;23.380;2024-01-07T08:36:04;9.13;;;6.70;;
39300;SDS011;25019;42.626;23.380;2024-01-07T08:38:30;8.80;;;5.97;;
39300;SDS011;25019;42.626;23.380;2024-01-07T08:40:55;9.13;;;6.40;;
39300;SDS011;25019;42.626;23.380;2024-01-07T08:43:22;7.97;;;5.53;;
39300;SDS011;25019;42.626;23.380;2024-01-07T08:45:47;8.57;;;5.90;;
39300;SDS011;25019;42.626;23.380;2024-01-07T08:48:13;10.43;;;6.60;;
39300;SDS011;25019;42.626;23.380;2024-01-07T08:50:39;10.67;;;6.40;;
39300;SDS011;25019;42.626;23.380;2024-01-07T08:53:04;8.23;;;5.83;;
39300;SDS011;25019;42.626;23.380;2024-01-07T08:55:30;8.53;;;5.80;;
39300;SDS011;25019;42.626;23.380;2024-01-07T08:57:56;9.07;;;6.27;;
39300;SDS011;25019;42.626;23.380;2024-01-07T09:00:22;8.47;;;6.37;;
39300;SDS011;25019;42.626;23.380;2024-01-07T09:02:51;8.90;;;6.27;;
39300;SDS011;25019;42.626;23.380;2024-01-07T09:05:17;9.67;;;6.30;;
39300;SDS011;25019;42.626;23.380;2024-01-07T09:07:43;9.00;;;6.73;;
39300;SDS011;25019;42.626;23.380;2024-01-07T09:10:08;9.93;;;7.50;;
39300;SDS011;25019;42.626;23.380;2024-01-07T09:12:38;11.63;;;7.53;;
39300;SDS011;25019;42.626;23.380;2024-01-07T09:15:05;10.77;;;7.90;;
39300;SDS011;25019;42.626;23.380;2024-01-07T09:17:36;13.63;;;8.90;;
39300;SDS011;25019;42.626;23.380;2024-01-07T09:20:08;26.90;;;16.37;;
39300;SDS011;25019;42.626;23.380;2024-01-07T09:22:35;38.70;;;24.57;;
39300;SDS011;25019;42.626;23.380;2024-01-07T09:25:04;15.80;;;11.03;;
39300;SDS011;25019;42.626;23.380;2024-01-07T09:27:31;14.70;;;10.17;;
39300;SDS011;25019;42.626;23.380;2024-01-07T09:29:57;15.10;;;10.30;;
39300;SDS011;25019;42.626;23.380;2024-01-07T09:32:23;14.57;;;9.93;;
39300;SDS011;25019;42.626;23.380;2024-01-07T09:34:49;12.47;;;9.30;;
39300;SDS011;25019;42.626;23.380;2024-01-07T09:37:14;12.50;;;9.63;;
39300;SDS011;25019;42.626;23.380;2024-01-07T09:39:40;16.00;;;11.50;;
39300;SDS011;25019;42.626;23.380;2024-01-07T09:42:16;14.93;;;10.37;;
39300;SDS011;25019;42.626;23.380;2024-01-07T09:44:44;18.17;;;11.27;;
39300;SDS011;25019;42.626;23.380;2024-01-07T09:47:11;16.23;;;12.53;;
39300;SDS011;25019;42.626;23.380;2024-01-07T09:49:38;14.30;;;11.57;;
39300;SDS011;25019;42.626;23.380;2024-01-07T09:52:04;14.97;;;11.30;;
39300;SDS011;25019;42.626;23.380;2024-01-07T09:54:31;19.33;;;11.77;;
39300;SDS011;25019;42.626;23.380;2024-01-07T09:57:01;15.77;;;10.43;;
39300;SDS011;25019;42.626;23.380;2024-01-07T09:59:28;10.13;;;6.10;;
39300;SDS011;25019;42.626;23.380;2024-01-07T10:01:55;9.93;;;4.10;;
39300;SDS011;25019;42.626;23.380;2024-01-07T10:04:21;7.07;;;3.53;;
39300;SDS011;25019;42.626;23.380;2024-01-07T10:06:48;6.87;;;3.60;;
39300;SDS011;25019;42.626;23.380;2024-01-07T10:09:17;4.80;;;3.53;;
39300;SDS011;25019;42.626;23.380;2024-01-07T10:11:44;4.77;;;3.37;;
39300;SDS011;25019;42.626;23.380;2024-01-07T10:14:10;5.17;;;3.20;;
39300;SDS011;25019;42.626;23.380;2024-01-07T10:16:36;5.20;;;3.40;;
39300;SDS011;25019;42.626;23.380;2024-01-07T10:19:02;5.00;;;3.03;;
39300;SDS011;25019;42.626;23.380;2024-01-07T10:21:28;3.73;;;2.60;;
39300;SDS011;25019;42.626;23.380;2024-01-07T10:24:09;5.40;;;3.03;;
39300;SDS011;25019;42.626;23.380;2024-01-07T10:26:39;4.77;;;2.20;;
39300;SDS011;25019;42.626;23.380;2024-01-07T10:29:09;6.33;;;3.17;;
39300;SDS011;25019;42.626;23.380;2024-01-07T10:31:34;4.50;;;2.83;;
39300;SDS011;25019;42.626;23.380;2024-01-07T10:34:00;4.37;;;2.23;;
39300;SDS011;25019;42.626;23.380;2024-01-07T10:36:26;3.73;;;2.10;;
39300;SDS011;25019;42.626;23.380;2024-01-07T10:38:52;4.63;;;2.10;;
39300;SDS011;25019;42.626;23.380;2024-01-07T10:41:20;3.67;;;2.33;;
39300;SDS011;25019;42.626;23.380;2024-01-07T10:43:49;5.27;;;2.77;;
39300;SDS011;25019;42.626;23.380;2024-01-07T10:46:15;3.43;;;2.40;;
39300;SDS011;25019;42.626;23.380;2024-01-07T10:48:50;4.83;;;2.63;;
39300;SDS011;25019;42.626;23.380;2024-01-07T10:51:20;2.90;;;2.43;;
39300;SDS011;25019;42.626;23.380;2024-01-07T10:53:50;4.70;;;2.60;;
39300;SDS011;25019;42.626;23.380;2024-01-07T10:56:19;6.30;;;2.60;;
39300;SDS011;25019;42.626;23.380;2024-01-07T10:58:49;6.63;;;2.57;;
39300;SDS011;25019;42.626;23.380;2024-01-07T11:01:17;5.87;;;2.80;;
39300;SDS011;25019;42.626;23.380;2024-01-07T11:03:56;8.47;;;3.40;;
39300;SDS011;25019;42.626;23.380;2024-01-07T11:06:31;6.03;;;3.30;;
39300;SDS011;25019;42.626;23.380;2024-01-07T11:11:43;5.70;;;3.50;;
39300;SDS011;25019;42.626;23.380;2024-01-07T11:17:01;8.37;;;4.60;;
39300;SDS011;25019;42.626;23.380;2024-01-07T11:19:28;8.93;;;4.40;;
39300;SDS011;25019;42.626;23.380;2024-01-07T11:22:20;6.37;;;3.83;;
39300;SDS011;25019;42.626;23.380;2024-01-07T11:24:56;6.73;;;4.40;;
39300;SDS011;25019;42.626;23.380;2024-01-07T11:27:23;7.53;;;3.87;;
39300;SDS011;25019;42.626;23.380;2024-01-07T11:29:56;5.57;;;3.60;;
39300;SDS011;25019;42.626;23.380;2024-01-07T11:32:29;6.67;;;3.63;;
39300;SDS011;25019;42.626;23.380;2024-01-07T11:34:55;6.30;;;4.37;;
39300;SDS011;25019;42.626;23.380;2024-01-07T11:37:24;4.63;;;3.37;;
39300;SDS011;25019;42.626;23.380;2024-01-07T11:39:51;5.83;;;3.70;;
39300;SDS011;25019;42.626;23.380;2024-01-07T11:42:20;7.07;;;3.47;;
39300;SDS011;25019;42.626;23.380;2024-01-07T11:44:52;6.00;;;4.03;;
39300;SDS011;25019;42.626;23.380;2024-01-07T11:47:19;8.90;;;4.33;;
39300;SDS011;25019;42.626;23.380;2024-01-07T11:49:46;7.53;;;4.30;;
39300;SDS011;25019;42.626;23.380;2024-01-07T11:52:12;7.60;;;4.10;;
39300;SDS011;25019;42.626;23.380;2024-01-07T11:54:39;80.73;;;44.87;;
39300;SDS011;25019;42.626;23.380;2024-01-07T11:57:05;7.00;;;5.00;;
39300;SDS011;25019;42.626;23.380;2024-01-07T11:59:35;7.53;;;4.30;;
39300;SDS011;25019;42.626;23.380;2024-01-07T12:02:02;8.20;;;3.77;;
39300;SDS011;25019;42.626;23.380;2024-01-07T12:04:42;4.67;;;3.57;;
39300;SDS011;25019;42.626;23.380;2024-01-07T12:07:10;4.00;;;3.13;;
39300;SDS011;25019;42.626;23.380;2024-01-07T12:09:39;5.80;;;3.87;;
39300;SDS011;25019;42.626;23.380;2024-01-07T12:12:06;6.30;;;3.53;;
39300;SDS011;25019;42.626;23.380;2024-01-07T12:14:32;4.97;;;3.30;;
39300;SDS011;25019;42.626;23.380;2024-01-07T12:16:57;8.90;;;5.50;;
39300;SDS011;25019;42.626;23.380;2024-01-07T12:19:24;6.93;;;4.10;;
39300;SDS011;25019;42.626;23.380;2024-01-07T12:22:00;5.57;;;3.90;;
39300;SDS011;25019;42.626;23.380;2024-01-07T12:24:27;4.67;;;3.57;;
39300;SDS011;25019;42.626;23.380;2024-01-07T12:26:52;6.87;;;4.50;;
39300;SDS011;25019;42.626;23.380;2024-01-07T12:29:19;7.33;;;3.97;;
39300;SDS011;25019;42.626;23.380;2024-01-07T12:31:46;7.47;;;3.70;;
39300;SDS011;25019;42.626;23.380;2024-01-07T12:34:16;5.20;;;3.93;;
39300;SDS011;25019;42.626;23.380;2024-01-07T12:36:44;5.53;;;3.83;;
39300;SDS011;25019;42.626;23.380;2024-01-07T12:39:11;6.87;;;3.30;;
39300;SDS011;25019;42.626;23.380;2024-01-07T12:41:37;5.93;;;3.40;;
39300;SDS011;25019;42.626;23.380;2024-01-07T12:44:03;6.10;;;3.40;;
39300;SDS011;25019;42.626;23.380;2024-01-07T12:46:28;6.63;;;3.73;;
39300;SDS011;25019;42.626;23.380;2024-01-07T12:48:54;8.10;;;3.97;;
39300;SDS011;25019;42.626;23.380;2024-01-07T12:51:20;8.00;;;4.50;;
39300;SDS011;25019;42.626;23.380;2024-01-07T12:53:45;7.50;;;4.80;;
39300;SDS011;25019;42.626;23.380;2024-01-07T12:56:11;9.13;;;5.00;;
39300;SDS011;25019;42.626;23.380;2024-01-07T12:58:38;10.00;;;5.00;;
39300;SDS011;25019;42.626;23.380;2024-01-07T13:01:04;7.37;;;4.97;;
39300;SDS011;25019;42.626;23.380;2024-01-07T13:03:29;10.23;;;5.67;;
39300;SDS011;25019;42.626;23.380;2024-01-07T13:05:55;9.13;;;5.57;;
39300;SDS011;25019;42.626;23.380;2024-01-07T13:08:21;7.63;;;5.13;;
39300;SDS011;25019;42.626;23.380;2024-01-07T13:10:47;7.90;;;5.03;;
39300;SDS011;25019;42.626;23.380;2024-01-07T13:13:13;7.47;;;4.57;;
39300;SDS011;25019;42.626;23.380;2024-01-07T13:15:39;6.13;;;4.57;;
39300;SDS011;25019;42.626;23.380;2024-01-07T13:18:06;8.27;;;4.73;;
39300;SDS011;25019;42.626;23.380;2024-01-07T13:20:32;7.50;;;4.50;;
39300;SDS011;25019;42.626;23.380;2024-01-07T13:22:59;7.43;;;4.90;;
39300;SDS011;25019;42.626;23.380;2024-01-07T13:25:25;7.60;;;5.10;;
39300;SDS011;25019;42.626;23.380;2024-01-07T13:27:51;6.77;;;4.50;;
39300;SDS011;25019;42.626;23.380;2024-01-07T13:30:17;8.40;;;4.20;;
39300;SDS011;25019;42.626;23.380;2024-01-07T13:32:42;11.17;;;6.23;;
39300;SDS011;25019;42.626;23.380;2024-01-07T13:35:08;9.80;;;6.13;;
39300;SDS011;25019;42.626;23.380;2024-01-07T13:37:38;7.83;;;4.70;;
39300;SDS011;25019;42.626;23.380;2024-01-07T13:40:06;9.10;;;4.43;;
39300;SDS011;25019;42.626;23.380;2024-01-07T13:42:35;6.80;;;4.43;;
39300;SDS011;25019;42.626;23.380;2024-01-07T13:45:01;8.87;;;4.90;;
39300;SDS011;25019;42.626;23.380;2024-01-07T13:47:28;9.13;;;5.03;;
39300;SDS011;25019;42.626;23.380;2024-01-07T13:49:53;9.97;;;5.30;;
39300;SDS011;25019;42.626;23.380;2024-01-07T13:52:19;6.27;;;4.77;;
39300;SDS011;25019;42.626;23.380;2024-01-07T13:54:45;10.73;;;5.30;;
39300;SDS011;25019;42.626;23.380;2024-01-07T13:57:10;7.53;;;5.37;;
39300;SDS011;25019;42.626;23.380;2024-01-07T13:59:38;12.80;;;6.40;;
39300;SDS011;25019;42.626;23.380;2024-01-07T14:02:05;12.57;;;7.00;;
39300;SDS011;25019;42.626;23.380;2024-01-07T14:04:32;15.10;;;7.07;;
39300;SDS011;25019;42.626;23.380;2024-01-07T14:06:58;11.43;;;6.33;;
39300;SDS011;25019;42.626;23.380;2024-01-07T14:09:24;13.77;;;6.57;;
39300;SDS011;25019;42.626;23.380;2024-01-07T14:11:51;12.17;;;7.17;;
39300;SDS011;25019;42.626;23.380;2024-01-07T14:14:17;9.73;;;5.80;;
39300;SDS011;25019;42.626;23.380;2024-01-07T14:16:44;10.07;;;5.63;;
39300;SDS011;25019;42.626;23.380;2024-01-07T14:19:11;6.97;;;4.67;;
39300;SDS011;25019;42.626;23.380;2024-01-07T14:21:37;7.23;;;4.70;;
39300;SDS011;25019;42.626;23.380;2024-01-07T14:24:03;12.07;;;4.77;;
39300;SDS011;25019;42.626;23.380;2024-01-07T14:26:29;9.27;;;4.67;;
39300;SDS011;25019;42.626;23.380;2024-01-07T14:28:54;7.00;;;4.30;;